Time;durP1;ratioP1;P1;durP2;ratioP2;P2;SDS_P1;SDS_P2;PMS_P1;PMS_P2;Temp;Humidity;BMP_temperature;BMP_pressure;BME280_temperature;BME280_humidity;BME280_pressure;Samples;Min_cycle;Max_cycle;Signal;HPM_P1;HPM_P2
2022/07/19 00:53:17;;;;;;;6.22;5.00;;;15.50;99.90;;;;;;6210721;22;20395;-80
2022/07/19 00:55:44;;;;;;;7.65;4.60;;;15.50;99.90;;;;;;6223582;22;20095;-80
2022/07/19 00:58:13;;;;;;;6.93;4.88;;;15.50;99.90;;;;;;6223663;22;20023;-80
2022/07/19 01:00:39;;;;;;;6.50;4.72;;;15.40;99.90;;;;;;6222818;22;20031;-80
2022/07/19 01:03:07;;;;;;;6.30;4.97;;;15.40;99.90;;;;;;6215900;23;20008;-80
2022/07/19 01:05:33;;;;;;;6.47;5.28;;;15.30;99.90;;;;;;6217425;23;20014;-81
2022/07/19 01:18:21;;;;;;;6.57;5.18;;;15.30;99.90;;;;;;6263634;22;20015;-80
2022/07/19 01:20:46;;;;;;;6.30;5.68;;;15.20;99.90;;;;;;6224211;22;20008;-80
2022/07/19 01:23:12;;;;;;;7.30;6.40;;;15.20;99.90;;;;;;6225884;22;20035;-80
2022/07/19 01:25:37;;;;;;;8.15;5.95;;;15.20;99.90;;;;;;6252055;22;20035;-80
2022/07/19 01:28:07;;;;;;;6.03;4.97;;;15.10;99.90;;;;;;6230261;23;20091;-81
2022/07/19 01:30:34;;;;;;;6.25;5.53;;;15.10;99.90;;;;;;6222161;23;20015;-81
2022/07/19 01:33:00;;;;;;;6.22;5.35;;;15.20;99.90;;;;;;6196161;23;20408;-81
2022/07/19 01:35:26;;;;;;;7.05;5.25;;;15.10;99.90;;;;;;6197326;23;20266;-81
2022/07/19 01:37:53;;;;;;;6.03;4.95;;;15.00;99.90;;;;;;6197845;23;20067;-81
2022/07/19 01:40:19;;;;;;;7.57;5.43;;;15.00;99.90;;;;;;6196987;23;20047;-81
2022/07/19 01:42:46;;;;;;;6.82;6.13;;;15.00;99.90;;;;;;6222330;23;20008;-80
2022/07/19 01:45:12;;;;;;;7.53;5.97;;;14.90;99.90;;;;;;6222245;23;20036;-80
2022/07/19 01:47:40;;;;;;;8.20;6.50;;;14.90;99.90;;;;;;6197051;23;20535;-80
2022/07/19 01:50:08;;;;;;;6.63;5.55;;;14.90;99.90;;;;;;6197689;23;20062;-80
2022/07/19 01:52:34;;;;;;;6.07;5.47;;;14.90;99.90;;;;;;6198093;23;20095;-81
2022/07/19 01:54:59;;;;;;;7.13;6.13;;;14.90;99.90;;;;;;6199283;23;20012;-81
2022/07/19 01:57:26;;;;;;;6.47;5.88;;;14.80;99.90;;;;;;6223522;23;20094;-81
2022/07/19 01:59:52;;;;;;;7.43;5.88;;;14.80;99.90;;;;;;6199241;23;20072;-81
2022/07/19 02:02:18;;;;;;;7.95;6.32;;;14.80;99.90;;;;;;6199916;23;20012;-81
2022/07/19 02:04:43;;;;;;;6.57;5.68;;;14.80;99.90;;;;;;6199333;23;20090;-81
2022/07/19 02:07:09;;;;;;;6.40;5.72;;;14.80;99.90;;;;;;6223347;23;20005;-81
2022/07/19 02:09:34;;;;;;;6.93;6.22;;;14.90;99.90;;;;;;6224904;23;20044;-81
2022/07/19 02:12:00;;;;;;;8.32;6.20;;;14.80;99.90;;;;;;6197390;23;20023;-81
2022/07/19 02:14:26;;;;;;;7.68;5.88;;;14.80;99.90;;;;;;6198859;23;20452;-81
2022/07/19 02:16:51;;;;;;;9.88;6.43;;;14.70;99.90;;;;;;6199434;23;20099;-81
2022/07/19 02:19:17;;;;;;;10.95;6.78;;;14.70;99.90;;;;;;6200594;23;20015;-81
2022/07/19 02:21:43;;;;;;;7.30;6.05;;;14.70;99.90;;;;;;6224291;23;20321;-80
2022/07/19 02:24:08;;;;;;;7.75;6.13;;;14.60;99.90;;;;;;6198967;23;20019;-81
2022/07/19 02:26:35;;;;;;;8.32;6.75;;;14.60;99.90;;;;;;6219836;22;20019;-81
2022/07/19 02:29:01;;;;;;;7.38;6.63;;;14.70;99.90;;;;;;6219610;23;20046;-81
2022/07/19 02:31:26;;;;;;;7.15;6.32;;;14.60;99.90;;;;;;6193967;23;20008;-81
2022/07/19 02:33:52;;;;;;;7.43;6.50;;;14.60;99.90;;;;;;6217817;23;20065;-81
2022/07/19 02:36:18;;;;;;;7.20;6.50;;;14.60;99.90;;;;;;6194365;22;20030;-81
2022/07/19 02:38:44;;;;;;;9.63;8.13;;;14.60;99.90;;;;;;6219871;23;20008;-81
2022/07/19 02:41:10;;;;;;;9.05;7.25;;;14.60;99.90;;;;;;6194551;23;20016;-81
2022/07/19 02:43:36;;;;;;;8.55;7.20;;;14.50;99.90;;;;;;6194639;23;20371;-81
2022/07/19 02:46:01;;;;;;;7.90;6.80;;;14.50;99.90;;;;;;6194546;23;20008;-81
2022/07/19 02:48:27;;;;;;;7.88;6.88;;;14.40;99.90;;;;;;6194832;23;20352;-81
2022/07/19 02:50:53;;;;;;;7.97;7.18;;;14.60;99.90;;;;;;6219847;23;20477;-81
2022/07/19 02:53:18;;;;;;;9.23;8.27;;;14.50;99.90;;;;;;6194278;23;20019;-81
2022/07/19 02:55:44;;;;;;;9.13;7.95;;;14.50;99.90;;;;;;6195166;23;20015;-81
2022/07/19 02:58:09;;;;;;;10.80;8.35;;;14.50;99.90;;;;;;6194287;23;20008;-81
2022/07/19 03:00:35;;;;;;;8.25;7.45;;;14.50;99.90;;;;;;6218896;23;20012;-80
2022/07/19 03:05:45;;;;;;;10.15;7.78;;;14.40;99.90;;;;;;6220136;23;20162;-81
2022/07/19 03:08:11;;;;;;;10.93;8.10;;;14.40;99.90;;;;;;6219641;23;20455;-81
2022/07/19 03:10:37;;;;;;;10.13;7.18;;;14.40;99.90;;;;;;6193934;23;20016;-81
2022/07/19 03:13:03;;;;;;;9.57;8.38;;;14.40;99.90;;;;;;6194927;23;20511;-81
2022/07/19 03:15:28;;;;;;;10.60;8.02;;;14.30;99.90;;;;;;6221094;23;20016;-81
2022/07/19 03:17:54;;;;;;;9.25;8.27;;;14.30;99.90;;;;;;6219983;23;20011;-81
2022/07/19 03:20:20;;;;;;;9.90;8.38;;;14.30;99.90;;;;;;6194508;23;20099;-81
2022/07/19 03:22:45;;;;;;;9.55;7.93;;;14.30;99.90;;;;;;6219806;23;20336;-81
2022/07/19 03:25:11;;;;;;;9.07;7.97;;;14.30;99.90;;;;;;6220495;23;20035;-81
2022/07/19 03:27:37;;;;;;;8.85;7.95;;;14.30;99.90;;;;;;6195447;23;20024;-81
2022/07/19 03:30:04;;;;;;;9.63;8.65;;;14.30;99.90;;;;;;6195079;23;20014;-80
2022/07/19 03:32:29;;;;;;;12.85;8.15;;;14.30;99.90;;;;;;6194453;23;20016;-81
2022/07/19 03:34:55;;;;;;;9.25;8.27;;;14.30;99.90;;;;;;6195409;23;20023;-81
2022/07/19 03:37:20;;;;;;;9.00;8.10;;;14.20;99.90;;;;;;6195867;23;20012;-81
2022/07/19 03:39:46;;;;;;;10.25;8.48;;;14.20;99.90;;;;;;6220419;23;20019;-81
2022/07/19 03:42:12;;;;;;;9.93;8.85;;;14.20;99.90;;;;;;6193872;23;20093;-81
2022/07/19 03:44:37;;;;;;;9.93;8.90;;;14.20;99.90;;;;;;6195839;23;20016;-81
2022/07/19 03:47:03;;;;;;;11.20;9.35;;;14.20;99.90;;;;;;6196123;23;20013;-81
2022/07/19 03:49:28;;;;;;;13.25;9.88;;;14.20;99.90;;;;;;6220927;23;20012;-81
2022/07/19 03:51:54;;;;;;;12.60;9.85;;;14.20;99.90;;;;;;6195472;23;20099;-81
2022/07/19 03:54:20;;;;;;;11.88;10.70;;;14.10;99.90;;;;;;6220998;23;20022;-81
2022/07/19 03:56:45;;;;;;;10.80;9.15;;;14.20;99.90;;;;;;6195696;23;20067;-81
2022/07/19 03:59:11;;;;;;;11.77;9.75;;;14.20;99.90;;;;;;6196307;23;20035;-81
2022/07/19 04:01:37;;;;;;;10.60;9.50;;;14.20;99.90;;;;;;6220809;23;20020;-81
2022/07/19 04:04:04;;;;;;;10.43;9.30;;;14.20;99.90;;;;;;6220882;23;20083;-81
2022/07/19 04:06:30;;;;;;;11.40;9.25;;;14.20;99.90;;;;;;6220443;22;20054;-81
2022/07/19 04:08:56;;;;;;;10.15;9.05;;;14.20;99.90;;;;;;6196013;23;20391;-81
2022/07/19 04:11:21;;;;;;;10.65;8.52;;;14.20;99.90;;;;;;6195828;23;20016;-81
2022/07/19 04:13:47;;;;;;;11.75;9.20;;;14.30;99.90;;;;;;6221411;23;20012;-81
2022/07/19 04:16:13;;;;;;;10.52;9.43;;;14.30;99.90;;;;;;6196610;23;20023;-81
2022/07/19 04:18:39;;;;;;;12.02;10.20;;;14.30;99.90;;;;;;6222264;23;20008;-81
2022/07/19 04:21:05;;;;;;;10.30;9.27;;;14.30;99.90;;;;;;6221454;23;20039;-81
2022/07/19 04:23:31;;;;;;;11.57;10.38;;;14.30;99.90;;;;;;6197817;23;20008;-81
2022/07/19 04:25:57;;;;;;;10.75;9.68;;;14.40;99.90;;;;;;6197601;23;20031;-81
2022/07/19 04:28:23;;;;;;;10.38;9.38;;;14.30;99.90;;;;;;6223163;23;20444;-81
2022/07/19 04:30:49;;;;;;;10.60;9.48;;;14.30;99.90;;;;;;6197444;23;20019;-81
2022/07/19 04:33:16;;;;;;;10.15;8.82;;;14.30;99.90;;;;;;6197794;23;20087;-81
2022/07/19 04:35:41;;;;;;;11.27;9.93;;;14.40;99.90;;;;;;6222681;23;20012;-81
2022/07/19 04:38:07;;;;;;;11.07;9.95;;;14.50;99.90;;;;;;6222283;23;20014;-81
2022/07/19 04:40:33;;;;;;;11.35;10.18;;;14.50;99.90;;;;;;6198658;23;20452;-81
2022/07/19 04:42:58;;;;;;;13.63;9.85;;;14.50;99.90;;;;;;6198886;23;20009;-81
2022/07/19 04:45:24;;;;;;;12.93;11.00;;;14.60;99.90;;;;;;6225220;23;20008;-81
2022/07/19 04:47:49;;;;;;;13.88;10.20;;;14.70;99.90;;;;;;6220565;23;20063;-81
2022/07/19 04:50:15;;;;;;;12.27;9.65;;;14.90;99.90;;;;;;6218212;23;20012;-81
2022/07/19 04:52:41;;;;;;;12.63;10.18;;;15.00;99.90;;;;;;6193026;23;20016;-81
2022/07/19 04:55:07;;;;;;;10.95;9.80;;;15.20;99.90;;;;;;6218720;23;20012;-81
2022/07/19 04:57:32;;;;;;;11.38;10.10;;;15.30;99.90;;;;;;6192929;23;20013;-81
2022/07/19 04:59:58;;;;;;;10.30;9.27;;;15.40;99.90;;;;;;6193553;23;20012;-81
2022/07/19 05:02:24;;;;;;;12.77;9.77;;;15.60;99.90;;;;;;6193405;23;20066;-81
2022/07/19 05:04:49;;;;;;;12.40;9.63;;;15.80;99.90;;;;;;6218096;23;20340;-81
2022/07/19 05:07:15;;;;;;;11.52;10.32;;;16.00;99.90;;;;;;6218969;23;20440;-81
2022/07/19 05:09:41;;;;;;;11.52;9.82;;;16.10;99.90;;;;;;6193236;23;20012;-81
2022/07/19 05:12:07;;;;;;;10.73;9.63;;;16.20;99.90;;;;;;6192838;23;20440;-81
2022/07/19 05:14:33;;;;;;;8.98;8.07;;;16.50;99.90;;;;;;6218524;23;20012;-81
2022/07/19 05:16:59;;;;;;;11.45;8.55;;;16.70;99.90;;;;;;6218976;23;20008;-81
2022/07/19 05:19:25;;;;;;;10.20;8.30;;;17.00;99.90;;;;;;6219522;23;20012;-81
2022/07/19 05:21:50;;;;;;;8.85;7.50;;;17.00;99.90;;;;;;6192887;23;20012;-81
2022/07/19 05:24:16;;;;;;;8.98;8.10;;;17.20;99.90;;;;;;6193853;23;20043;-81
2022/07/19 05:26:42;;;;;;;9.18;8.27;;;17.40;99.90;;;;;;6194172;23;20317;-81
2022/07/19 05:29:08;;;;;;;8.77;7.60;;;17.60;99.90;;;;;;6219544;23;20028;-81
2022/07/19 05:31:33;;;;;;;10.23;7.70;;;17.80;99.90;;;;;;6193565;23;20009;-81
2022/07/19 05:33:59;;;;;;;8.80;7.07;;;18.00;99.90;;;;;;6193738;23;20015;-81
2022/07/19 05:36:25;;;;;;;9.23;6.93;;;18.20;99.90;;;;;;6194641;22;20012;-81
2022/07/19 05:38:52;;;;;;;11.45;7.60;;;18.30;99.90;;;;;;6192853;23;20091;-81
2022/07/19 05:41:18;;;;;;;9.10;7.22;;;18.50;99.90;;;;;;6194793;23;20452;-81
2022/07/19 05:43:43;;;;;;;8.82;7.43;;;18.60;99.90;;;;;;6219352;23;20040;-81
2022/07/19 05:46:09;;;;;;;11.65;7.20;;;18.70;99.90;;;;;;6219399;23;20015;-81
2022/07/19 05:48:35;;;;;;;8.48;7.00;;;18.90;99.90;;;;;;6193820;23;20022;-81
2022/07/19 05:51:00;;;;;;;8.52;7.30;;;19.00;99.90;;;;;;6195249;23;20456;-81
2022/07/19 05:53:26;;;;;;;8.07;7.03;;;19.10;99.90;;;;;;6195034;23;20024;-81
2022/07/19 05:55:52;;;;;;;8.82;6.90;;;19.30;99.90;;;;;;6194086;23;20205;-81
2022/07/19 05:58:18;;;;;;;7.75;6.55;;;19.50;99.90;;;;;;6193944;23;20011;-81
2022/07/19 06:03:31;;;;;;;8.50;6.68;;;19.70;99.90;;;;;;6219889;23;20047;-81
2022/07/19 06:05:57;;;;;;;7.57;6.05;;;19.80;99.90;;;;;;6220570;23;20009;-81
2022/07/19 06:08:22;;;;;;;7.72;6.70;;;19.90;99.90;;;;;;6219316;23;20031;-81
2022/07/19 06:10:49;;;;;;;9.32;7.05;;;19.90;99.90;;;;;;6195667;23;20233;-82
2022/07/19 06:13:14;;;;;;;9.35;6.45;;;19.90;99.90;;;;;;6196125;23;20449;-81
2022/07/19 06:15:40;;;;;;;6.63;5.82;;;19.80;99.90;;;;;;6195666;23;20023;-81
2022/07/19 06:18:06;;;;;;;8.88;6.50;;;19.80;99.90;;;;;;6219236;23;20340;-82
2022/07/19 06:20:31;;;;;;;8.80;5.97;;;19.80;99.90;;;;;;6220100;23;20082;-82
2022/07/19 06:22:57;;;;;;;9.93;6.53;;;19.80;99.90;;;;;;6202942;23;20101;-81
2022/07/19 06:25:22;;;;;;;7.40;6.60;;;19.80;99.90;;;;;;6226742;23;20258;-82
2022/07/19 06:27:48;;;;;;;7.88;6.70;;;19.90;99.90;;;;;;6227966;23;20030;-83
2022/07/19 06:30:14;;;;;;;6.90;6.00;;;19.80;99.90;;;;;;6204991;23;20050;-84
2022/07/19 06:32:39;;;;;;;6.90;6.20;;;19.90;99.90;;;;;;6206967;23;20016;-84
2022/07/19 06:35:05;;;;;;;10.18;6.50;;;20.00;99.90;;;;;;6207014;23;20016;-82
2022/07/19 06:37:31;;;;;;;9.60;6.20;;;20.10;99.90;;;;;;6201383;23;20082;-83
2022/07/19 06:39:56;;;;;;;7.18;5.65;;;20.30;99.90;;;;;;6197743;23;20408;-84
2022/07/19 06:42:22;;;;;;;8.30;5.45;;;20.50;99.90;;;;;;6204557;23;20015;-84
2022/07/19 06:44:48;;;;;;;8.15;5.07;;;20.70;99.90;;;;;;6203689;23;20019;-81
2022/07/19 06:47:13;;;;;;;7.57;5.97;;;20.80;99.90;;;;;;6233630;23;20571;-81
2022/07/19 06:49:39;;;;;;;8.85;5.78;;;20.90;99.90;;;;;;6206927;23;20012;-81
2022/07/19 06:52:05;;;;;;;8.43;5.60;;;21.00;99.90;;;;;;6231372;23;20012;-81
2022/07/19 06:54:30;;;;;;;9.35;5.47;;;21.10;99.90;;;;;;6214600;23;20016;-82
2022/07/19 06:56:56;;;;;;;8.35;5.93;;;21.10;99.90;;;;;;6240064;23;20016;-81
2022/07/19 06:59:22;;;;;;;6.93;5.40;;;21.20;99.90;;;;;;6214413;23;20004;-81
2022/07/19 07:01:48;;;;;;;9.15;5.60;;;21.30;99.90;;;;;;6212975;23;20076;-82
2022/07/19 07:04:14;;;;;;;7.65;5.70;;;21.30;99.90;;;;;;6218029;23;20012;-82
2022/07/19 07:06:39;;;;;;;9.45;5.30;;;21.40;99.90;;;;;;6243030;23;20023;-82
2022/07/19 07:09:05;;;;;;;7.43;4.95;;;21.60;99.90;;;;;;6209259;23;20012;-81
2022/07/19 07:11:31;;;;;;;6.93;4.93;;;21.60;99.90;;;;;;6198446;23;20008;-81
2022/07/19 07:13:56;;;;;;;7.75;4.90;;;21.70;99.90;;;;;;6223334;23;20058;-82
2022/07/19 07:16:22;;;;;;;6.45;5.15;;;21.80;99.90;;;;;;6222521;22;20012;-81
2022/07/19 07:18:48;;;;;;;9.55;5.28;;;21.90;99.90;;;;;;6218945;22;20035;-88
2022/07/19 07:21:13;;;;;;;5.88;4.50;;;22.10;99.90;;;;;;6223256;22;20008;-88
2022/07/19 07:23:39;;;;;;;5.95;4.63;;;22.20;99.90;;;;;;6221923;22;20065;-88
2022/07/19 07:26:05;;;;;;;5.97;4.72;;;22.40;99.90;;;;;;6223499;22;20042;-88
2022/07/19 07:28:31;;;;;;;6.20;4.82;;;22.50;99.90;;;;;;6198670;23;20023;-88
2022/07/19 07:30:57;;;;;;;7.72;4.78;;;22.70;99.90;;;;;;6190749;23;20012;-87
2022/07/19 07:33:22;;;;;;;8.38;4.10;;;22.80;99.90;;;;;;6192975;23;20605;-87
2022/07/19 07:35:48;;;;;;;8.35;4.50;;;23.00;99.90;;;;;;6193391;23;20062;-87
2022/07/19 07:38:14;;;;;;;7.25;4.57;;;23.10;99.90;;;;;;6192013;23;20070;-87
2022/07/19 07:40:39;;;;;;;7.45;4.30;;;23.30;99.90;;;;;;6193057;23;20012;-87
2022/07/19 07:43:05;;;;;;;7.32;4.30;;;23.50;99.90;;;;;;6217854;23;20440;-87
2022/07/19 07:45:32;;;;;;;5.20;3.75;;;23.80;99.90;;;;;;6192779;23;20054;-87
2022/07/19 07:47:57;;;;;;;6.78;4.32;;;24.00;99.90;;;;;;6217330;23;20135;-87
2022/07/19 07:50:24;;;;;;;8.52;4.28;;;24.20;99.90;;;;;;6192044;23;20047;-87
2022/07/19 07:52:49;;;;;;;7.22;4.13;;;24.40;99.90;;;;;;6191222;23;20020;-87
2022/07/19 07:55:15;;;;;;;5.43;3.60;;;24.90;99.90;;;;;;6191343;23;20091;-87
2022/07/19 07:57:41;;;;;;;5.10;3.78;;;25.50;99.90;;;;;;6192328;23;20055;-87
2022/07/19 08:00:09;;;;;;;5.50;3.55;;;26.00;99.10;;;;;;6217084;23;20027;-87
2022/07/19 08:02:40;;;;;;;6.43;3.60;;;26.60;97.00;;;;;;6191864;23;20035;-89
2022/07/19 08:05:05;;;;;;;6.32;3.25;;;27.20;94.90;;;;;;6192293;23;20013;-88
2022/07/19 08:07:31;;;;;;;5.57;2.80;;;27.70;93.40;;;;;;6191048;23;20035;-88
2022/07/19 08:09:59;;;;;;;4.93;3.08;;;28.20;92.80;;;;;;6191920;23;20329;-89
2022/07/19 08:12:25;;;;;;;5.05;2.95;;;28.70;91.50;;;;;;6190065;23;20344;-90
2022/07/19 08:14:53;;;;;;;4.43;2.90;;;29.20;88.80;;;;;;6192608;23;20016;-91
2022/07/19 08:17:19;;;;;;;4.85;2.80;;;29.70;85.20;;;;;;6191639;23;20522;-89
2022/07/19 08:19:44;;;;;;;4.90;2.58;;;30.20;81.00;;;;;;6192784;23;20031;-92
2022/07/19 08:22:15;;;;;;;7.63;2.90;;;30.70;78.70;;;;;;6192629;23;20031;-91
2022/07/19 08:24:40;;;;;;;3.38;2.30;;;31.20;73.70;;;;;;6217297;23;20019;-89
2022/07/19 08:27:06;;;;;;;4.43;2.30;;;31.60;72.70;;;;;;6191820;23;20008;-89
2022/07/19 08:29:32;;;;;;;3.50;2.00;;;32.10;71.60;;;;;;6192220;23;20087;-89
2022/07/19 08:31:57;;;;;;;4.85;2.28;;;32.50;68.80;;;;;;6192570;23;20019;-89
2022/07/19 08:34:23;;;;;;;5.43;2.10;;;32.90;67.50;;;;;;6191476;23;20066;-88
2022/07/19 08:36:48;;;;;;;6.43;2.78;;;33.20;65.00;;;;;;6192159;22;20074;-88
2022/07/19 08:39:14;;;;;;;4.13;1.85;;;33.50;64.70;;;;;;6216457;23;20009;-89
2022/07/19 08:41:43;;;;;;;2.60;1.88;;;33.70;63.60;;;;;;6192486;23;20016;-89
2022/07/19 08:44:10;;;;;;;3.50;2.38;;;34.00;63.20;;;;;;6192671;23;20138;-89
2022/07/19 08:46:36;;;;;;;3.45;2.10;;;34.20;61.90;;;;;;6191992;23;20014;-88
2022/07/19 08:49:02;;;;;;;4.38;2.10;;;34.40;59.80;;;;;;6191170;23;20456;-87
2022/07/19 08:51:28;;;;;;;3.58;2.20;;;34.60;59.60;;;;;;6191909;23;20014;-91
2022/07/19 08:53:54;;;;;;;4.25;2.00;;;34.80;57.80;;;;;;6192973;23;20038;-89
2022/07/19 08:59:05;;;;;;;3.50;1.70;;;35.20;56.90;;;;;;6217383;23;20086;-89
2022/07/19 09:01:31;;;;;;;4.63;2.17;;;35.40;58.00;;;;;;6192454;23;20067;-86
2022/07/19 09:04:19;;;;;;;4.80;1.80;;;35.60;56.90;;;;;;6192578;23;20436;-87
2022/07/19 09:06:50;;;;;;;2.40;1.77;;;35.70;53.70;;;;;;6192512;22;20022;-86
2022/07/19 09:09:18;;;;;;;5.47;2.08;;;35.80;55.10;;;;;;6192712;23;20344;-87
2022/07/19 09:11:49;;;;;;;2.97;2.15;;;36.00;55.40;;;;;;6192244;23;20395;-88
2022/07/19 09:14:17;;;;;;;4.25;1.88;;;36.10;54.30;;;;;;6192456;23;20012;-86
2022/07/19 09:17:03;;;;;;;2.95;1.65;;;36.20;54.30;;;;;;6192491;22;20012;-86
2022/07/19 09:19:32;;;;;;;3.25;1.60;;;36.40;52.00;;;;;;6192380;23;20008;-87
2022/07/19 09:22:04;;;;;;;2.95;1.40;;;36.50;53.70;;;;;;6192703;23;20013;-87
2022/07/19 09:24:42;;;;;;;3.33;1.60;;;36.50;52.60;;;;;;6192635;23;20005;-87
2022/07/19 09:27:16;;;;;;;3.05;1.80;;;36.70;52.60;;;;;;6192599;23;20046;-86
2022/07/19 09:29:47;;;;;;;3.38;1.63;;;36.80;51.00;;;;;;6192565;23;20012;-87
2022/07/19 09:32:18;;;;;;;3.80;1.98;;;36.90;51.50;;;;;;6192525;23;20008;-88
2022/07/19 09:35:01;;;;;;;4.82;1.70;;;36.90;50.70;;;;;;6192538;23;20012;-86
2022/07/19 09:37:29;;;;;;;3.90;1.55;;;37.00;49.10;;;;;;6192737;23;20012;-87
2022/07/19 09:39:57;;;;;;;4.25;1.55;;;37.10;49.70;;;;;;6192663;23;20050;-87
2022/07/19 09:42:33;;;;;;;8.60;1.67;;;37.20;48.50;;;;;;6192521;23;20054;-88
2022/07/19 09:45:02;;;;;;;3.20;1.25;;;37.20;48.60;;;;;;6194370;23;20012;-87
2022/07/19 09:47:37;;;;;;;4.65;1.42;;;37.30;47.10;;;;;;6194120;23;20004;-87
2022/07/19 09:50:06;;;;;;;3.30;1.60;;;37.30;45.80;;;;;;6194290;23;20012;-86
2022/07/19 09:52:34;;;;;;;2.20;1.40;;;37.30;45.70;;;;;;6193965;23;20019;-87
2022/07/19 09:55:03;;;;;;;4.45;1.40;;;37.30;45.80;;;;;;6192049;23;20019;-89
2022/07/19 09:57:32;;;;;;;1.80;1.40;;;37.30;45.00;;;;;;6192618;23;20016;-87
2022/07/19 09:59:58;;;;;;;1.80;1.30;;;37.40;45.90;;;;;;6192943;23;20023;-86
2022/07/19 10:02:25;;;;;;;3.55;1.35;;;37.50;46.10;;;;;;6193414;23;20008;-86
2022/07/19 10:04:51;;;;;;;4.15;1.55;;;37.80;46.00;;;;;;6219236;23;20008;-84
2022/07/19 10:07:18;;;;;;;4.20;1.35;;;37.80;44.90;;;;;;6192524;23;20008;-83
2022/07/19 10:09:44;;;;;;;1.92;1.10;;;37.90;44.00;;;;;;6192974;23;20012;-84
2022/07/19 10:12:11;;;;;;;2.55;1.38;;;37.90;43.90;;;;;;6216668;23;20042;-85
2022/07/19 10:14:38;;;;;;;2.45;1.58;;;38.00;43.90;;;;;;6193287;23;20012;-85
2022/07/19 10:17:22;;;;;;;2.35;1.30;;;38.10;43.70;;;;;;6193666;22;20012;-84
2022/07/19 10:19:49;;;;;;;2.25;1.30;;;38.20;41.90;;;;;;6193632;23;20352;-83
2022/07/19 10:22:17;;;;;;;3.13;1.30;;;38.20;42.90;;;;;;6193353;23;20008;-85
2022/07/19 10:24:44;;;;;;;3.88;1.30;;;38.30;43.20;;;;;;6193739;23;20083;-84
2022/07/19 10:27:11;;;;;;;3.22;1.40;;;38.40;43.50;;;;;;6193663;23;20403;-86
2022/07/19 10:29:37;;;;;;;2.58;1.23;;;38.50;43.30;;;;;;6193529;23;20016;-84
2022/07/19 10:32:09;;;;;;;2.22;1.48;;;38.60;42.90;;;;;;6192945;23;20023;-87
2022/07/19 10:34:35;;;;;;;2.40;1.30;;;38.70;42.10;;;;;;6192988;23;20012;-87
2022/07/19 10:37:01;;;;;;;2.97;1.15;;;38.80;42.20;;;;;;6216707;22;20012;-84
2022/07/19 10:39:36;;;;;;;1.63;1.40;;;38.80;42.20;;;;;;6191024;23;20014;-85
2022/07/19 10:42:20;;;;;;;2.30;1.20;;;38.80;40.90;;;;;;6193044;23;20091;-84
2022/07/19 10:44:59;;;;;;;2.90;1.30;;;38.80;37.90;;;;;;6193705;23;20015;-84
2022/07/19 10:47:40;;;;;;;2.25;1.30;;;38.90;41.70;;;;;;6191850;23;20008;-84
2022/07/19 10:50:07;;;;;;;2.97;1.35;;;39.00;39.50;;;;;;6192721;23;20014;-84
2022/07/19 10:52:42;;;;;;;3.90;1.75;;;39.00;40.80;;;;;;6192062;23;20087;-84
2022/07/19 10:55:17;;;;;;;2.03;1.45;;;39.00;39.90;;;;;;6218059;23;20401;-83
2022/07/19 10:58:06;;;;;;;4.63;1.85;;;39.00;39.80;;;;;;6218090;23;20009;-86
2022/07/19 11:00:52;;;;;;;2.10;1.42;;;39.20;40.00;;;;;;6193661;23;20066;-85
2022/07/19 11:03:21;;;;;;;3.42;1.30;;;39.30;37.30;;;;;;6217743;23;20486;-87
2022/07/19 11:05:50;;;;;;;3.08;1.45;;;39.50;39.90;;;;;;6193445;23;20340;-84
2022/07/19 11:08:16;;;;;;;3.05;1.30;;;39.60;40.00;;;;;;6192604;23;20009;-85
2022/07/19 11:10:42;;;;;;;2.97;1.38;;;39.70;40.50;;;;;;6193410;23;20078;-86
2022/07/19 11:13:08;;;;;;;2.20;1.20;;;39.90;40.00;;;;;;6191616;23;20016;-88
2022/07/19 11:15:33;;;;;;;5.47;1.30;;;39.90;38.80;;;;;;6193176;23;20012;-83
2022/07/19 11:18:06;;;;;;;4.65;1.45;;;39.90;38.80;;;;;;6191594;23;20018;-84
2022/07/19 11:20:34;;;;;;;3.33;1.52;;;40.00;39.30;;;;;;6192588;23;20070;-84
2022/07/19 11:23:03;;;;;;;2.17;1.30;;;40.00;39.80;;;;;;6191783;23;20009;-85
2022/07/19 11:25:38;;;;;;;3.88;1.20;;;40.00;39.00;;;;;;6193144;23;20008;-84
2022/07/19 11:28:04;;;;;;;3.80;1.20;;;40.00;38.00;;;;;;6191424;23;20044;-85
2022/07/19 11:30:32;;;;;;;2.55;1.20;;;40.00;38.20;;;;;;6218048;23;20470;-84
2022/07/19 11:33:05;;;;;;;3.70;1.30;;;40.10;38.00;;;;;;6192481;23;20016;-85
2022/07/19 11:35:32;;;;;;;3.05;1.33;;;40.20;38.10;;;;;;6192193;23;20019;-85
2022/07/19 11:37:59;;;;;;;2.20;1.30;;;40.20;38.20;;;;;;6191146;23;20035;-85
2022/07/19 11:40:33;;;;;;;2.40;1.63;;;40.20;37.80;;;;;;6216991;23;20012;-84
2022/07/19 11:42:59;;;;;;;1.23;1.05;;;40.30;36.30;;;;;;6192404;23;20545;-84
2022/07/19 11:45:25;;;;;;;2.38;1.33;;;40.40;37.10;;;;;;6217602;23;20061;-85
2022/07/19 11:47:55;;;;;;;4.75;1.35;;;40.40;37.40;;;;;;6216578;23;20058;-85
2022/07/19 11:50:23;;;;;;;1.52;1.10;;;40.40;37.50;;;;;;6191909;23;20317;-85
2022/07/19 11:52:49;;;;;;;4.18;1.40;;;40.50;37.00;;;;;;6192019;23;20012;-85
2022/07/19 11:55:17;;;;;;;2.47;1.20;;;40.50;37.40;;;;;;6218114;23;20348;-86
2022/07/19 11:57:42;;;;;;;3.10;1.42;;;40.60;36.30;;;;;;6191992;23;20431;-84
2022/07/19 12:00:10;;;;;;;2.35;1.38;;;40.60;36.60;;;;;;6192640;23;20016;-87
2022/07/19 12:02:57;;;;;;;5.00;1.50;;;40.70;36.60;;;;;;6216634;23;20050;-85
2022/07/19 12:05:26;;;;;;;1.58;1.20;;;40.80;36.60;;;;;;6192883;23;20008;-85
2022/07/19 12:07:54;;;;;;;1.30;1.08;;;40.80;36.40;;;;;;6192834;23;20103;-85
2022/07/19 12:10:40;;;;;;;1.52;1.02;;;40.80;36.10;;;;;;6192682;23;20008;-86
2022/07/19 12:13:08;;;;;;;1.90;1.20;;;40.80;35.10;;;;;;6193001;23;20345;-86
2022/07/19 12:15:49;;;;;;;1.55;1.05;;;40.80;35.70;;;;;;6192839;23;20008;-86
2022/07/19 12:18:17;;;;;;;1.58;1.20;;;40.90;36.20;;;;;;6192779;23;20008;-85
2022/07/19 12:21:06;;;;;;;1.58;1.13;;;40.90;36.30;;;;;;6192599;23;20044;-85
2022/07/19 12:23:31;;;;;;;2.70;1.20;;;40.90;35.70;;;;;;6192358;23;20325;-86
2022/07/19 12:26:04;;;;;;;1.13;0.98;;;40.90;36.20;;;;;;6192509;23;20015;-85
2022/07/19 12:28:30;;;;;;;2.63;1.50;;;40.90;35.00;;;;;;6192295;23;20150;-85
2022/07/19 12:31:06;;;;;;;1.20;1.10;;;40.90;35.20;;;;;;6192604;23;20048;-84
2022/07/19 12:33:32;;;;;;;2.15;1.30;;;41.00;36.10;;;;;;6191980;23;20550;-85
2022/07/19 12:35:58;;;;;;;2.42;1.10;;;41.00;35.30;;;;;;6192824;23;20054;-85
2022/07/19 12:38:33;;;;;;;1.75;1.13;;;41.00;35.00;;;;;;6192047;23;20349;-85
2022/07/19 12:41:07;;;;;;;3.47;1.25;;;41.00;34.20;;;;;;6215934;23;20051;-85
2022/07/19 12:43:33;;;;;;;4.38;1.10;;;41.00;34.40;;;;;;6192550;23;20055;-85
2022/07/19 12:46:03;;;;;;;2.03;1.30;;;41.10;34.10;;;;;;6192808;23;20344;-85
2022/07/19 12:48:29;;;;;;;1.23;0.90;;;41.20;34.40;;;;;;6192189;23;20008;-85
2022/07/19 12:50:54;;;;;;;1.58;1.20;;;41.40;35.00;;;;;;6191125;23;20097;-85
2022/07/19 12:53:21;;;;;;;2.20;1.25;;;41.60;34.30;;;;;;6192361;23;20008;-85
2022/07/19 12:55:48;;;;;;;1.33;1.00;;;41.70;34.20;;;;;;6192181;23;20012;-85
2022/07/19 12:59:38;;;;;;;1.20;1.10;;;41.90;35.00;;;;;;6217105;23;20344;-85
2022/07/19 13:01:02;;;;;;;1.75;1.30;;;42.00;34.60;;;;;;6216907;23;20448;-85
2022/07/19 13:03:28;;;;;;;2.78;1.20;;;42.00;34.50;;;;;;6215833;23;20004;-86
2022/07/19 13:05:53;;;;;;;2.78;1.25;;;42.00;33.70;;;;;;6216721;23;20054;-85
2022/07/19 13:08:19;;;;;;;3.22;1.17;;;42.00;33.20;;;;;;6191344;23;20020;-84
2022/07/19 13:10:45;;;;;;;2.00;1.00;;;41.80;33.30;;;;;;6191911;23;20091;-85
2022/07/19 13:13:10;;;;;;;2.13;1.17;;;41.80;33.40;;;;;;6191845;23;20012;-83
2022/07/19 13:15:36;;;;;;;1.85;1.00;;;41.80;33.20;;;;;;6191867;23;20047;-85
2022/07/19 15:58:36;;;;;;;2.13;1.70;;;35.90;37.50;;;;;;6190863;22;20047;-86
2022/07/19 16:01:01;;;;;;;6.78;2.10;;;35.80;38.20;;;;;;6217474;23;20008;-85
2022/07/19 16:03:27;;;;;;;3.08;1.90;;;35.70;38.30;;;;;;6192265;23;20419;-86
2022/07/19 16:05:52;;;;;;;2.78;1.67;;;35.50;37.90;;;;;;6192202;23;20019;-86
2022/07/19 16:08:18;;;;;;;2.35;1.70;;;35.50;37.60;;;;;;6192859;23;20023;-86
2022/07/19 16:10:44;;;;;;;3.67;1.60;;;35.50;37.30;;;;;;6187252;23;20012;-86
2022/07/19 17:55:56;;;;;;;3.35;2.13;;;33.80;42.40;;;;;;6304588;22;20062;-86
2022/07/19 17:58:22;;;;;;;2.65;1.85;;;33.80;42.30;;;;;;6189296;23;20017;-87
2022/07/19 18:00:47;;;;;;;2.42;1.88;;;33.80;42.50;;;;;;6190096;23;20012;-87
2022/07/19 18:03:13;;;;;;;4.30;2.33;;;33.70;42.50;;;;;;6189462;23;20036;-86
2022/07/19 18:05:39;;;;;;;2.60;2.03;;;33.70;43.00;;;;;;6188540;23;20340;-86
2022/07/19 18:08:06;;;;;;;3.42;1.92;;;33.70;43.50;;;;;;6186533;23;20013;-85
2022/07/19 18:10:33;;;;;;;2.75;1.77;;;33.60;43.80;;;;;;6188039;23;20017;-86
2022/07/19 18:13:01;;;;;;;5.43;2.20;;;33.60;43.70;;;;;;6163783;23;20008;-86
2022/07/19 18:15:27;;;;;;;3.70;1.90;;;33.50;43.90;;;;;;6164135;23;20051;-87
2022/07/19 18:17:52;;;;;;;4.82;1.90;;;33.50;43.90;;;;;;6163950;23;20016;-86
2022/07/19 18:20:19;;;;;;;3.40;2.05;;;33.40;44.30;;;;;;6163971;23;20478;-86